Main page
METAR-TAF:

METAR-TAF

Airports :

St Athan, Wales

MOD St Athan

latitude: 51-24N, longitude: 003-26W, elevation: 50 m

Current weather observation

The report was made 28 minutes ago, at 01:50 UTC
Wind 3 kt from the West/Northwest
Temperature 5°C
Humidity 93%
Pressure 1024 hPa
Visibility 10 km or more

METAR: EGDX 170150Z AUTO 29003KT 9999 FEW013/// SCT080/// 05/04 Q1024

Time: 02:18 (02:18 UTC)

Forecast

The report was made 12 hours and 51 minutes ago, at 13:27 UTC
Forecast valid from 16 at 15 UTC to 16 at 18 UTC
Wind 14 kt from the West/Northwest
Visibility 10 km or more
Few clouds at a height of 2000 ft
Temporary
from 16 at 15 UTC to 16 at 18 UTC
Scattered clouds at a height of 1800 ft
Probability 30% :
Temporary
from 16 at 15 UTC to 16 at 18 UTC
Wind 15 kt from the West/Northwest with gusts up to 25 kt
Visibility: 7000 m
Scattered clouds at a height of 1200 ft
light rain showers

TAF: EGDX 161327Z 1615/1618 30014KT 9999 FEW020 TEMPO 1615/1618 SCT018 PROB30 TEMPO 1615/1618 30015G25KT 7000 -SHRA SCT012

Weather observations and forecasts of more than 4000 airports (METAR and TAF reports).

The available stations are represented by yellow and red dots on the map.

Hover mouse over dot to see the name of the station.

Then click to see weather observations and forecasts.

To change the map : click on the green buttons with a black cross to zoom in, on the green button with a dash to zoom out, or on the green arrows for adjacent maps.


METAR-TAF: